sensor_id;sensor_type;location;lat;lon;timestamp;P1;durP1;ratioP1;P2;durP2;ratioP2
10823;SDS011;39116;59.332;18.034;2022-09-03T00:01:56;5.32;;;1.65;;
10823;SDS011;39116;59.332;18.034;2022-09-03T00:04:24;1.63;;;1.30;;
10823;SDS011;39116;59.332;18.034;2022-09-03T00:06:54;3.10;;;1.45;;
10823;SDS011;39116;59.332;18.034;2022-09-03T00:09:24;1.50;;;1.33;;
10823;SDS011;39116;59.332;18.034;2022-09-03T00:11:53;1.40;;;1.27;;
10823;SDS011;39116;59.332;18.034;2022-09-03T00:14:23;2.72;;;1.65;;
10823;SDS011;39116;59.332;18.034;2022-09-03T00:16:51;3.13;;;1.83;;
10823;SDS011;39116;59.332;18.034;2022-09-03T00:19:22;2.10;;;1.40;;
10823;SDS011;39116;59.332;18.034;2022-09-03T00:21:51;2.38;;;1.52;;
10823;SDS011;39116;59.332;18.034;2022-09-03T00:24:19;1.38;;;1.27;;
10823;SDS011;39116;59.332;18.034;2022-09-03T00:26:49;1.58;;;1.38;;
10823;SDS011;39116;59.332;18.034;2022-09-03T00:29:19;2.42;;;1.52;;
10823;SDS011;39116;59.332;18.034;2022-09-03T00:31:46;3.33;;;1.13;;
10823;SDS011;39116;59.332;18.034;2022-09-03T00:34:15;1.58;;;1.48;;
10823;SDS011;39116;59.332;18.034;2022-09-03T00:36:46;3.95;;;1.55;;
10823;SDS011;39116;59.332;18.034;2022-09-03T00:39:14;3.60;;;2.00;;
10823;SDS011;39116;59.332;18.034;2022-09-03T00:41:44;2.25;;;1.30;;
10823;SDS011;39116;59.332;18.034;2022-09-03T00:46:58;1.60;;;0.90;;
10823;SDS011;39116;59.332;18.034;2022-09-03T00:49:28;1.67;;;1.52;;
10823;SDS011;39116;59.332;18.034;2022-09-03T00:52:01;1.80;;;1.30;;
10823;SDS011;39116;59.332;18.034;2022-09-03T00:54:31;1.73;;;1.08;;
10823;SDS011;39116;59.332;18.034;2022-09-03T00:57:09;1.80;;;1.70;;
10823;SDS011;39116;59.332;18.034;2022-09-03T00:59:37;1.60;;;1.40;;
10823;SDS011;39116;59.332;18.034;2022-09-03T01:02:10;2.33;;;1.13;;
10823;SDS011;39116;59.332;18.034;2022-09-03T01:04:44;1.33;;;1.15;;
10823;SDS011;39116;59.332;18.034;2022-09-03T01:07:16;2.20;;;1.20;;
10823;SDS011;39116;59.332;18.034;2022-09-03T01:09:48;1.58;;;1.10;;
10823;SDS011;39116;59.332;18.034;2022-09-03T01:12:18;1.70;;;1.35;;
10823;SDS011;39116;59.332;18.034;2022-09-03T01:14:52;1.40;;;1.23;;
10823;SDS011;39116;59.332;18.034;2022-09-03T01:17:25;1.00;;;0.90;;
10823;SDS011;39116;59.332;18.034;2022-09-03T01:25:40;3.30;;;1.80;;
10823;SDS011;39116;59.332;18.034;2022-09-03T01:28:16;3.75;;;1.50;;
10823;SDS011;39116;59.332;18.034;2022-09-03T01:30:45;3.78;;;1.90;;
10823;SDS011;39116;59.332;18.034;2022-09-03T01:33:16;2.22;;;1.67;;
10823;SDS011;39116;59.332;18.034;2022-09-03T01:35:45;2.33;;;1.50;;
10823;SDS011;39116;59.332;18.034;2022-09-03T01:38:16;3.25;;;1.30;;
10823;SDS011;39116;59.332;18.034;2022-09-03T01:40:48;2.28;;;1.58;;
10823;SDS011;39116;59.332;18.034;2022-09-03T01:43:26;1.70;;;1.30;;
10823;SDS011;39116;59.332;18.034;2022-09-03T01:46:00;2.55;;;1.60;;
10823;SDS011;39116;59.332;18.034;2022-09-03T01:48:34;1.92;;;1.40;;
10823;SDS011;39116;59.332;18.034;2022-09-03T01:51:05;3.30;;;1.52;;
10823;SDS011;39116;59.332;18.034;2022-09-03T01:53:39;2.35;;;1.30;;
10823;SDS011;39116;59.332;18.034;2022-09-03T01:56:16;3.10;;;1.60;;
10823;SDS011;39116;59.332;18.034;2022-09-03T01:58:47;1.95;;;1.60;;
10823;SDS011;39116;59.332;18.034;2022-09-03T02:01:22;3.28;;;2.22;;
10823;SDS011;39116;59.332;18.034;2022-09-03T02:03:50;2.47;;;2.25;;
10823;SDS011;39116;59.332;18.034;2022-09-03T02:06:24;1.67;;;1.50;;
10823;SDS011;39116;59.332;18.034;2022-09-03T02:08:51;2.45;;;1.42;;
10823;SDS011;39116;59.332;18.034;2022-09-03T02:11:17;1.70;;;1.60;;
10823;SDS011;39116;59.332;18.034;2022-09-03T02:13:45;4.32;;;1.30;;
10823;SDS011;39116;59.332;18.034;2022-09-03T02:16:15;4.00;;;1.60;;
10823;SDS011;39116;59.332;18.034;2022-09-03T02:18:45;2.42;;;1.80;;
10823;SDS011;39116;59.332;18.034;2022-09-03T02:21:14;1.88;;;1.50;;
10823;SDS011;39116;59.332;18.034;2022-09-03T02:23:41;2.35;;;1.85;;
10823;SDS011;39116;59.332;18.034;2022-09-03T02:26:09;3.05;;;1.63;;
10823;SDS011;39116;59.332;18.034;2022-09-03T02:28:36;3.20;;;1.65;;
10823;SDS011;39116;59.332;18.034;2022-09-03T02:31:03;2.13;;;1.40;;
10823;SDS011;39116;59.332;18.034;2022-09-03T02:33:31;1.90;;;1.38;;
10823;SDS011;39116;59.332;18.034;2022-09-03T02:36:00;3.50;;;1.40;;
10823;SDS011;39116;59.332;18.034;2022-09-03T02:38:29;3.20;;;1.73;;
10823;SDS011;39116;59.332;18.034;2022-09-03T02:40:55;2.85;;;1.67;;
10823;SDS011;39116;59.332;18.034;2022-09-03T02:43:23;2.60;;;1.50;;
10823;SDS011;39116;59.332;18.034;2022-09-03T02:45:53;1.50;;;1.40;;
10823;SDS011;39116;59.332;18.034;2022-09-03T02:48:22;1.75;;;1.23;;
10823;SDS011;39116;59.332;18.034;2022-09-03T02:50:50;2.47;;;1.45;;
10823;SDS011;39116;59.332;18.034;2022-09-03T02:53:17;2.58;;;1.60;;
10823;SDS011;39116;59.332;18.034;2022-09-03T02:55:43;2.00;;;1.35;;
10823;SDS011;39116;59.332;18.034;2022-09-03T02:58:10;3.30;;;1.50;;
10823;SDS011;39116;59.332;18.034;2022-09-03T03:00:37;2.65;;;1.45;;
10823;SDS011;39116;59.332;18.034;2022-09-03T03:03:04;1.52;;;1.20;;
10823;SDS011;39116;59.332;18.034;2022-09-03T03:05:33;2.35;;;1.08;;
10823;SDS011;39116;59.332;18.034;2022-09-03T03:08:03;1.85;;;1.15;;
10823;SDS011;39116;59.332;18.034;2022-09-03T03:10:29;1.67;;;1.00;;
10823;SDS011;39116;59.332;18.034;2022-09-03T03:12:56;1.35;;;0.90;;
10823;SDS011;39116;59.332;18.034;2022-09-03T03:15:22;1.13;;;0.95;;
10823;SDS011;39116;59.332;18.034;2022-09-03T03:17:49;1.60;;;1.27;;
10823;SDS011;39116;59.332;18.034;2022-09-03T03:20:15;1.90;;;1.40;;
10823;SDS011;39116;59.332;18.034;2022-09-03T03:22:42;1.70;;;1.08;;
10823;SDS011;39116;59.332;18.034;2022-09-03T03:25:10;1.88;;;1.10;;
10823;SDS011;39116;59.332;18.034;2022-09-03T03:27:37;1.85;;;1.50;;
10823;SDS011;39116;59.332;18.034;2022-09-03T03:30:06;2.80;;;1.23;;
10823;SDS011;39116;59.332;18.034;2022-09-03T03:32:34;1.92;;;1.63;;
10823;SDS011;39116;59.332;18.034;2022-09-03T03:35:00;1.50;;;1.30;;
10823;SDS011;39116;59.332;18.034;2022-09-03T03:37:27;1.83;;;1.45;;
10823;SDS011;39116;59.332;18.034;2022-09-03T03:39:54;1.92;;;1.50;;
10823;SDS011;39116;59.332;18.034;2022-09-03T03:42:21;2.33;;;1.30;;
10823;SDS011;39116;59.332;18.034;2022-09-03T03:44:48;2.50;;;1.20;;
10823;SDS011;39116;59.332;18.034;2022-09-03T03:47:15;3.85;;;1.88;;
10823;SDS011;39116;59.332;18.034;2022-09-03T03:49:42;1.92;;;1.30;;
10823;SDS011;39116;59.332;18.034;2022-09-03T03:52:09;2.30;;;1.38;;
10823;SDS011;39116;59.332;18.034;2022-09-03T03:54:35;2.55;;;1.38;;
10823;SDS011;39116;59.332;18.034;2022-09-03T03:57:02;2.03;;;1.35;;
10823;SDS011;39116;59.332;18.034;2022-09-03T03:59:30;2.05;;;1.20;;
10823;SDS011;39116;59.332;18.034;2022-09-03T04:01:57;1.67;;;1.50;;
10823;SDS011;39116;59.332;18.034;2022-09-03T04:04:23;1.17;;;0.95;;
10823;SDS011;39116;59.332;18.034;2022-09-03T04:06:50;1.23;;;1.00;;
10823;SDS011;39116;59.332;18.034;2022-09-03T04:09:16;1.38;;;1.00;;
10823;SDS011;39116;59.332;18.034;2022-09-03T04:11:43;3.67;;;1.13;;
10823;SDS011;39116;59.332;18.034;2022-09-03T04:14:09;1.25;;;1.02;;
10823;SDS011;39116;59.332;18.034;2022-09-03T04:16:37;0.93;;;0.90;;
10823;SDS011;39116;59.332;18.034;2022-09-03T04:19:04;2.72;;;1.23;;
10823;SDS011;39116;59.332;18.034;2022-09-03T04:21:30;1.33;;;1.13;;
10823;SDS011;39116;59.332;18.034;2022-09-03T04:23:57;1.50;;;0.90;;
10823;SDS011;39116;59.332;18.034;2022-09-03T04:26:24;1.80;;;1.20;;
10823;SDS011;39116;59.332;18.034;2022-09-03T04:28:51;2.20;;;1.20;;
10823;SDS011;39116;59.332;18.034;2022-09-03T04:31:19;1.20;;;1.00;;
10823;SDS011;39116;59.332;18.034;2022-09-03T04:33:47;1.63;;;0.90;;
10823;SDS011;39116;59.332;18.034;2022-09-03T04:36:13;1.00;;;0.90;;
10823;SDS011;39116;59.332;18.034;2022-09-03T04:38:41;1.23;;;1.00;;
10823;SDS011;39116;59.332;18.034;2022-09-03T04:41:08;1.23;;;1.00;;
10823;SDS011;39116;59.332;18.034;2022-09-03T04:43:35;1.77;;;1.00;;
10823;SDS011;39116;59.332;18.034;2022-09-03T04:46:03;1.60;;;0.80;;
10823;SDS011;39116;59.332;18.034;2022-09-03T04:48:30;2.22;;;1.00;;
10823;SDS011;39116;59.332;18.034;2022-09-03T04:51:02;1.40;;;1.00;;
10823;SDS011;39116;59.332;18.034;2022-09-03T04:53:30;1.85;;;0.85;;
10823;SDS011;39116;59.332;18.034;2022-09-03T04:55:57;2.38;;;1.08;;
10823;SDS011;39116;59.332;18.034;2022-09-03T04:58:23;1.20;;;0.90;;
10823;SDS011;39116;59.332;18.034;2022-09-03T05:00:50;0.98;;;0.70;;
10823;SDS011;39116;59.332;18.034;2022-09-03T05:03:17;1.70;;;0.93;;
10823;SDS011;39116;59.332;18.034;2022-09-03T05:05:50;1.33;;;0.80;;
10823;SDS011;39116;59.332;18.034;2022-09-03T05:08:18;0.80;;;0.80;;
10823;SDS011;39116;59.332;18.034;2022-09-03T05:10:45;1.08;;;0.95;;
10823;SDS011;39116;59.332;18.034;2022-09-03T05:13:12;0.80;;;0.80;;
10823;SDS011;39116;59.332;18.034;2022-09-03T05:15:38;1.00;;;0.85;;
10823;SDS011;39116;59.332;18.034;2022-09-03T05:18:09;0.70;;;0.70;;
10823;SDS011;39116;59.332;18.034;2022-09-03T05:20:36;1.38;;;0.80;;
10823;SDS011;39116;59.332;18.034;2022-09-03T05:23:02;3.80;;;0.98;;
10823;SDS011;39116;59.332;18.034;2022-09-03T05:25:31;1.58;;;1.05;;
10823;SDS011;39116;59.332;18.034;2022-09-03T05:27:57;0.95;;;0.80;;
10823;SDS011;39116;59.332;18.034;2022-09-03T05:30:24;0.98;;;0.82;;
10823;SDS011;39116;59.332;18.034;2022-09-03T05:32:51;2.15;;;0.80;;
10823;SDS011;39116;59.332;18.034;2022-09-03T05:35:17;1.52;;;0.80;;
10823;SDS011;39116;59.332;18.034;2022-09-03T05:37:44;1.83;;;0.77;;
10823;SDS011;39116;59.332;18.034;2022-09-03T05:40:10;1.27;;;0.95;;
10823;SDS011;39116;59.332;18.034;2022-09-03T05:42:38;1.58;;;0.90;;
10823;SDS011;39116;59.332;18.034;2022-09-03T05:45:06;0.80;;;0.80;;
10823;SDS011;39116;59.332;18.034;2022-09-03T05:47:35;2.95;;;1.02;;
10823;SDS011;39116;59.332;18.034;2022-09-03T05:50:01;1.70;;;1.02;;
10823;SDS011;39116;59.332;18.034;2022-09-03T05:52:28;1.17;;;0.93;;
10823;SDS011;39116;59.332;18.034;2022-09-03T05:54:54;1.67;;;1.10;;
10823;SDS011;39116;59.332;18.034;2022-09-03T05:57:21;2.15;;;1.00;;
10823;SDS011;39116;59.332;18.034;2022-09-03T05:59:49;1.75;;;1.00;;
10823;SDS011;39116;59.332;18.034;2022-09-03T06:02:15;1.00;;;0.73;;
10823;SDS011;39116;59.332;18.034;2022-09-03T06:04:44;2.05;;;1.20;;
10823;SDS011;39116;59.332;18.034;2022-09-03T06:07:10;1.00;;;0.90;;
10823;SDS011;39116;59.332;18.034;2022-09-03T06:09:37;1.55;;;0.90;;
10823;SDS011;39116;59.332;18.034;2022-09-03T06:12:03;2.08;;;0.90;;
10823;SDS011;39116;59.332;18.034;2022-09-03T06:14:30;1.80;;;1.00;;
10823;SDS011;39116;59.332;18.034;2022-09-03T06:16:58;0.70;;;0.70;;
10823;SDS011;39116;59.332;18.034;2022-09-03T06:19:25;1.33;;;0.90;;
10823;SDS011;39116;59.332;18.034;2022-09-03T06:21:51;1.50;;;1.02;;
10823;SDS011;39116;59.332;18.034;2022-09-03T06:24:18;1.00;;;0.90;;
10823;SDS011;39116;59.332;18.034;2022-09-03T06:26:47;2.05;;;0.82;;
10823;SDS011;39116;59.332;18.034;2022-09-03T06:29:14;2.67;;;0.80;;
10823;SDS011;39116;59.332;18.034;2022-09-03T06:31:42;1.42;;;1.00;;
10823;SDS011;39116;59.332;18.034;2022-09-03T06:34:10;1.55;;;1.00;;
10823;SDS011;39116;59.332;18.034;2022-09-03T06:36:36;1.10;;;0.70;;
10823;SDS011;39116;59.332;18.034;2022-09-03T06:39:03;2.15;;;0.90;;
10823;SDS011;39116;59.332;18.034;2022-09-03T06:41:30;1.00;;;0.80;;
10823;SDS011;39116;59.332;18.034;2022-09-03T06:43:59;2.47;;;0.75;;
10823;SDS011;39116;59.332;18.034;2022-09-03T06:46:27;0.77;;;0.52;;
10823;SDS011;39116;59.332;18.034;2022-09-03T06:48:54;0.65;;;0.50;;
10823;SDS011;39116;59.332;18.034;2022-09-03T06:51:23;2.88;;;0.80;;
10823;SDS011;39116;59.332;18.034;2022-09-03T06:53:50;0.60;;;0.60;;
10823;SDS011;39116;59.332;18.034;2022-09-03T06:56:18;0.82;;;0.70;;
10823;SDS011;39116;59.332;18.034;2022-09-03T06:58:50;1.15;;;0.75;;
10823;SDS011;39116;59.332;18.034;2022-09-03T07:01:18;1.48;;;0.90;;
10823;SDS011;39116;59.332;18.034;2022-09-03T07:03:46;1.08;;;0.98;;
10823;SDS011;39116;59.332;18.034;2022-09-03T07:06:13;1.35;;;0.98;;
10823;SDS011;39116;59.332;18.034;2022-09-03T07:08:41;0.88;;;0.80;;
10823;SDS011;39116;59.332;18.034;2022-09-03T07:11:09;1.48;;;0.85;;
10823;SDS011;39116;59.332;18.034;2022-09-03T07:13:36;1.63;;;1.00;;
10823;SDS011;39116;59.332;18.034;2022-09-03T07:16:05;2.05;;;0.88;;
10823;SDS011;39116;59.332;18.034;2022-09-03T07:18:32;1.80;;;1.23;;
10823;SDS011;39116;59.332;18.034;2022-09-03T07:20:59;1.17;;;0.90;;
10823;SDS011;39116;59.332;18.034;2022-09-03T07:23:29;1.33;;;0.90;;
10823;SDS011;39116;59.332;18.034;2022-09-03T07:25:58;2.90;;;1.35;;
10823;SDS011;39116;59.332;18.034;2022-09-03T07:28:25;1.25;;;0.85;;
10823;SDS011;39116;59.332;18.034;2022-09-03T07:30:51;2.83;;;0.95;;
10823;SDS011;39116;59.332;18.034;2022-09-03T07:33:18;0.77;;;0.77;;
10823;SDS011;39116;59.332;18.034;2022-09-03T07:35:45;0.85;;;0.55;;
10823;SDS011;39116;59.332;18.034;2022-09-03T07:38:15;0.82;;;0.75;;
10823;SDS011;39116;59.332;18.034;2022-09-03T07:40:42;1.25;;;0.80;;
10823;SDS011;39116;59.332;18.034;2022-09-03T07:43:10;0.65;;;0.65;;
10823;SDS011;39116;59.332;18.034;2022-09-03T07:45:36;0.90;;;0.50;;
10823;SDS011;39116;59.332;18.034;2022-09-03T07:48:03;0.63;;;0.57;;
10823;SDS011;39116;59.332;18.034;2022-09-03T07:50:30;0.75;;;0.73;;
10823;SDS011;39116;59.332;18.034;2022-09-03T07:53:01;1.02;;;0.60;;
10823;SDS011;39116;59.332;18.034;2022-09-03T07:55:28;1.45;;;0.93;;
10823;SDS011;39116;59.332;18.034;2022-09-03T07:57:54;3.30;;;1.42;;
10823;SDS011;39116;59.332;18.034;2022-09-03T08:00:22;2.90;;;2.30;;
10823;SDS011;39116;59.332;18.034;2022-09-03T08:02:50;2.70;;;2.20;;
10823;SDS011;39116;59.332;18.034;2022-09-03T08:05:16;2.05;;;0.93;;
10823;SDS011;39116;59.332;18.034;2022-09-03T08:07:45;1.02;;;0.77;;
10823;SDS011;39116;59.332;18.034;2022-09-03T08:10:12;1.00;;;0.68;;
10823;SDS011;39116;59.332;18.034;2022-09-03T08:12:39;1.33;;;0.90;;
10823;SDS011;39116;59.332;18.034;2022-09-03T08:15:06;0.75;;;0.68;;
10823;SDS011;39116;59.332;18.034;2022-09-03T08:17:34;0.75;;;0.70;;
10823;SDS011;39116;59.332;18.034;2022-09-03T08:20:01;1.25;;;0.70;;
10823;SDS011;39116;59.332;18.034;2022-09-03T08:22:27;0.82;;;0.75;;
10823;SDS011;39116;59.332;18.034;2022-09-03T08:24:54;1.80;;;0.80;;
10823;SDS011;39116;59.332;18.034;2022-09-03T08:27:21;1.10;;;0.70;;
10823;SDS011;39116;59.332;18.034;2022-09-03T08:29:49;1.13;;;0.80;;
10823;SDS011;39116;59.332;18.034;2022-09-03T08:32:15;0.80;;;0.80;;
10823;SDS011;39116;59.332;18.034;2022-09-03T08:34:43;1.48;;;0.75;;
10823;SDS011;39116;59.332;18.034;2022-09-03T08:37:11;1.35;;;0.90;;
10823;SDS011;39116;59.332;18.034;2022-09-03T08:39:37;0.90;;;0.70;;
10823;SDS011;39116;59.332;18.034;2022-09-03T08:42:13;1.10;;;0.90;;
10823;SDS011;39116;59.332;18.034;2022-09-03T08:44:44;1.50;;;0.77;;
10823;SDS011;39116;59.332;18.034;2022-09-03T08:47:13;1.00;;;0.70;;
10823;SDS011;39116;59.332;18.034;2022-09-03T08:49:41;0.60;;;0.60;;
10823;SDS011;39116;59.332;18.034;2022-09-03T08:52:15;1.45;;;1.00;;
10823;SDS011;39116;59.332;18.034;2022-09-03T08:54:43;1.20;;;0.80;;
10823;SDS011;39116;59.332;18.034;2022-09-03T08:57:09;1.42;;;0.82;;
10823;SDS011;39116;59.332;18.034;2022-09-03T08:59:38;0.73;;;0.73;;
10823;SDS011;39116;59.332;18.034;2022-09-03T09:02:09;0.70;;;0.70;;
10823;SDS011;39116;59.332;18.034;2022-09-03T09:04:43;0.85;;;0.80;;
10823;SDS011;39116;59.332;18.034;2022-09-03T09:07:15;2.05;;;0.80;;
10823;SDS011;39116;59.332;18.034;2022-09-03T09:09:47;2.55;;;0.77;;
10823;SDS011;39116;59.332;18.034;2022-09-03T09:12:19;0.70;;;0.70;;
10823;SDS011;39116;59.332;18.034;2022-09-03T09:14:53;0.60;;;0.60;;
10823;SDS011;39116;59.332;18.034;2022-09-03T09:17:30;1.02;;;0.73;;
10823;SDS011;39116;59.332;18.034;2022-09-03T09:20:04;0.65;;;0.63;;
10823;SDS011;39116;59.332;18.034;2022-09-03T09:22:34;0.65;;;0.65;;
10823;SDS011;39116;59.332;18.034;2022-09-03T09:25:04;1.10;;;0.70;;
10823;SDS011;39116;59.332;18.034;2022-09-03T09:27:33;1.38;;;0.70;;
10823;SDS011;39116;59.332;18.034;2022-09-03T09:30:00;0.93;;;0.60;;
10823;SDS011;39116;59.332;18.034;2022-09-03T09:32:29;3.03;;;0.65;;
10823;SDS011;39116;59.332;18.034;2022-09-03T09:34:58;2.42;;;0.90;;
10823;SDS011;39116;59.332;18.034;2022-09-03T09:37:25;1.80;;;0.73;;
10823;SDS011;39116;59.332;18.034;2022-09-03T09:39:55;2.65;;;0.80;;
10823;SDS011;39116;59.332;18.034;2022-09-03T09:42:22;1.60;;;0.60;;
10823;SDS011;39116;59.332;18.034;2022-09-03T09:44:48;0.63;;;0.60;;
10823;SDS011;39116;59.332;18.034;2022-09-03T09:47:20;0.93;;;0.70;;
10823;SDS011;39116;59.332;18.034;2022-09-03T09:49:50;1.33;;;0.70;;
10823;SDS011;39116;59.332;18.034;2022-09-03T09:52:17;2.85;;;0.90;;
10823;SDS011;39116;59.332;18.034;2022-09-03T09:54:46;2.35;;;0.82;;
10823;SDS011;39116;59.332;18.034;2022-09-03T09:57:14;0.93;;;0.70;;
10823;SDS011;39116;59.332;18.034;2022-09-03T09:59:42;0.82;;;0.82;;
10823;SDS011;39116;59.332;18.034;2022-09-03T10:02:11;1.10;;;0.90;;
10823;SDS011;39116;59.332;18.034;2022-09-03T10:04:38;1.17;;;0.85;;
10823;SDS011;39116;59.332;18.034;2022-09-03T10:07:06;1.38;;;0.80;;
10823;SDS011;39116;59.332;18.034;2022-09-03T10:09:43;1.25;;;0.80;;
10823;SDS011;39116;59.332;18.034;2022-09-03T10:12:12;1.17;;;0.70;;
10823;SDS011;39116;59.332;18.034;2022-09-03T10:14:41;0.98;;;0.80;;
10823;SDS011;39116;59.332;18.034;2022-09-03T10:17:11;1.38;;;1.05;;
10823;SDS011;39116;59.332;18.034;2022-09-03T10:19:40;1.10;;;1.00;;
10823;SDS011;39116;59.332;18.034;2022-09-03T10:22:28;1.17;;;1.05;;
10823;SDS011;39116;59.332;18.034;2022-09-03T10:24:55;1.50;;;1.02;;
10823;SDS011;39116;59.332;18.034;2022-09-03T10:27:24;3.53;;;1.00;;
10823;SDS011;39116;59.332;18.034;2022-09-03T10:29:52;3.75;;;1.20;;
10823;SDS011;39116;59.332;18.034;2022-09-03T10:32:25;1.05;;;0.93;;
10823;SDS011;39116;59.332;18.034;2022-09-03T10:34:56;0.90;;;0.77;;
10823;SDS011;39116;59.332;18.034;2022-09-03T10:37:28;1.38;;;0.82;;
10823;SDS011;39116;59.332;18.034;2022-09-03T10:40:05;0.80;;;0.80;;
10823;SDS011;39116;59.332;18.034;2022-09-03T10:42:38;1.10;;;0.93;;
10823;SDS011;39116;59.332;18.034;2022-09-03T10:45:11;1.13;;;1.00;;
10823;SDS011;39116;59.332;18.034;2022-09-03T10:47:47;0.73;;;0.70;;
10823;SDS011;39116;59.332;18.034;2022-09-03T10:50:17;0.90;;;0.75;;
10823;SDS011;39116;59.332;18.034;2022-09-03T10:52:58;1.00;;;0.80;;
10823;SDS011;39116;59.332;18.034;2022-09-03T10:55:34;1.13;;;0.90;;
10823;SDS011;39116;59.332;18.034;2022-09-03T10:58:08;0.80;;;0.80;;
10823;SDS011;39116;59.332;18.034;2022-09-03T11:00:40;0.88;;;0.80;;
10823;SDS011;39116;59.332;18.034;2022-09-03T11:03:26;0.70;;;0.70;;
10823;SDS011;39116;59.332;18.034;2022-09-03T11:06:00;1.15;;;0.75;;
10823;SDS011;39116;59.332;18.034;2022-09-03T11:08:29;0.85;;;0.73;;
10823;SDS011;39116;59.332;18.034;2022-09-03T11:10:59;0.77;;;0.77;;
10823;SDS011;39116;59.332;18.034;2022-09-03T11:13:29;1.00;;;0.90;;
10823;SDS011;39116;59.332;18.034;2022-09-03T11:16:02;0.80;;;0.80;;
10823;SDS011;39116;59.332;18.034;2022-09-03T11:18:30;1.00;;;0.80;;
10823;SDS011;39116;59.332;18.034;2022-09-03T11:20:59;0.60;;;0.60;;
10823;SDS011;39116;59.332;18.034;2022-09-03T11:23:29;0.80;;;0.80;;
10823;SDS011;39116;59.332;18.034;2022-09-03T11:25:58;0.85;;;0.65;;
10823;SDS011;39116;59.332;18.034;2022-09-03T11:28:28;2.38;;;1.50;;
10823;SDS011;39116;59.332;18.034;2022-09-03T11:31:08;2.08;;;1.70;;
10823;SDS011;39116;59.332;18.034;2022-09-03T11:33:39;2.20;;;1.58;;
10823;SDS011;39116;59.332;18.034;2022-09-03T11:36:07;1.70;;;1.20;;
10823;SDS011;39116;59.332;18.034;2022-09-03T11:38:34;1.20;;;1.02;;
10823;SDS011;39116;59.332;18.034;2022-09-03T11:41:02;0.60;;;0.60;;
10823;SDS011;39116;59.332;18.034;2022-09-03T11:43:30;1.27;;;0.90;;
10823;SDS011;39116;59.332;18.034;2022-09-03T11:46:00;2.08;;;0.80;;
10823;SDS011;39116;59.332;18.034;2022-09-03T11:48:32;0.90;;;0.80;;
10823;SDS011;39116;59.332;18.034;2022-09-03T11:50:59;0.85;;;0.80;;
10823;SDS011;39116;59.332;18.034;2022-09-03T11:53:26;1.02;;;0.77;;
10823;SDS011;39116;59.332;18.034;2022-09-03T11:55:58;1.30;;;0.77;;
10823;SDS011;39116;59.332;18.034;2022-09-03T11:58:27;1.17;;;0.80;;
10823;SDS011;39116;59.332;18.034;2022-09-03T12:00:55;0.73;;;0.73;;
10823;SDS011;39116;59.332;18.034;2022-09-03T12:03:23;1.75;;;0.85;;
10823;SDS011;39116;59.332;18.034;2022-09-03T12:05:56;0.82;;;0.80;;
10823;SDS011;39116;59.332;18.034;2022-09-03T12:11:17;1.05;;;0.90;;
10823;SDS011;39116;59.332;18.034;2022-09-03T12:13:49;1.73;;;0.95;;
10823;SDS011;39116;59.332;18.034;2022-09-03T12:16:24;1.13;;;0.65;;
10823;SDS011;39116;59.332;18.034;2022-09-03T12:18:54;0.80;;;0.70;;
10823;SDS011;39116;59.332;18.034;2022-09-03T12:21:26;1.02;;;0.80;;
10823;SDS011;39116;59.332;18.034;2022-09-03T12:23:54;2.08;;;1.00;;
10823;SDS011;39116;59.332;18.034;2022-09-03T12:26:22;2.03;;;0.80;;
10823;SDS011;39116;59.332;18.034;2022-09-03T12:28:51;0.80;;;0.70;;
10823;SDS011;39116;59.332;18.034;2022-09-03T12:31:19;0.82;;;0.75;;
10823;SDS011;39116;59.332;18.034;2022-09-03T12:33:50;1.23;;;0.70;;
10823;SDS011;39116;59.332;18.034;2022-09-03T12:36:18;2.85;;;2.40;;
10823;SDS011;39116;59.332;18.034;2022-09-03T12:38:46;2.00;;;1.52;;
10823;SDS011;39116;59.332;18.034;2022-09-03T12:41:20;0.85;;;0.85;;
10823;SDS011;39116;59.332;18.034;2022-09-03T12:43:49;1.08;;;0.73;;
10823;SDS011;39116;59.332;18.034;2022-09-03T12:46:16;1.40;;;1.17;;
10823;SDS011;39116;59.332;18.034;2022-09-03T12:48:51;1.45;;;1.00;;
10823;SDS011;39116;59.332;18.034;2022-09-03T12:51:18;1.60;;;0.88;;
10823;SDS011;39116;59.332;18.034;2022-09-03T12:53:46;0.60;;;0.60;;
10823;SDS011;39116;59.332;18.034;2022-09-03T12:56:13;1.52;;;0.60;;
10823;SDS011;39116;59.332;18.034;2022-09-03T12:58:41;0.60;;;0.60;;
10823;SDS011;39116;59.332;18.034;2022-09-03T13:01:15;0.60;;;0.60;;
10823;SDS011;39116;59.332;18.034;2022-09-03T13:03:45;0.70;;;0.70;;
10823;SDS011;39116;59.332;18.034;2022-09-03T13:06:14;1.27;;;0.90;;
10823;SDS011;39116;59.332;18.034;2022-09-03T13:08:44;1.00;;;0.90;;
10823;SDS011;39116;59.332;18.034;2022-09-03T13:11:15;1.88;;;0.68;;
10823;SDS011;39116;59.332;18.034;2022-09-03T13:13:49;2.03;;;1.30;;
10823;SDS011;39116;59.332;18.034;2022-09-03T13:16:30;0.98;;;0.85;;
10823;SDS011;39116;59.332;18.034;2022-09-03T13:19:03;0.77;;;0.77;;
10823;SDS011;39116;59.332;18.034;2022-09-03T13:21:34;1.73;;;0.75;;
10823;SDS011;39116;59.332;18.034;2022-09-03T13:24:08;1.38;;;0.90;;
10823;SDS011;39116;59.332;18.034;2022-09-03T13:26:44;0.85;;;0.75;;
10823;SDS011;39116;59.332;18.034;2022-09-03T13:29:23;1.10;;;1.00;;
10823;SDS011;39116;59.332;18.034;2022-09-03T13:31:54;1.58;;;0.90;;
10823;SDS011;39116;59.332;18.034;2022-09-03T13:34:24;1.27;;;0.75;;
10823;SDS011;39116;59.332;18.034;2022-09-03T13:36:53;1.92;;;0.93;;
10823;SDS011;39116;59.332;18.034;2022-09-03T13:39:23;0.68;;;0.60;;
10823;SDS011;39116;59.332;18.034;2022-09-03T13:41:53;1.60;;;0.77;;
10823;SDS011;39116;59.332;18.034;2022-09-03T13:44:23;1.00;;;0.80;;
10823;SDS011;39116;59.332;18.034;2022-09-03T13:46:57;0.85;;;0.70;;
10823;SDS011;39116;59.332;18.034;2022-09-03T13:49:27;1.10;;;1.00;;
10823;SDS011;39116;59.332;18.034;2022-09-03T13:52:15;1.30;;;1.00;;
10823;SDS011;39116;59.332;18.034;2022-09-03T13:54:48;1.83;;;0.80;;
10823;SDS011;39116;59.332;18.034;2022-09-03T13:57:20;1.92;;;1.00;;
10823;SDS011;39116;59.332;18.034;2022-09-03T13:59:50;0.93;;;0.80;;
10823;SDS011;39116;59.332;18.034;2022-09-03T14:02:19;1.95;;;0.80;;
10823;SDS011;39116;59.332;18.034;2022-09-03T14:04:52;0.82;;;0.60;;
10823;SDS011;39116;59.332;18.034;2022-09-03T14:07:20;1.38;;;1.27;;
10823;SDS011;39116;59.332;18.034;2022-09-03T14:09:51;1.70;;;1.17;;
10823;SDS011;39116;59.332;18.034;2022-09-03T14:12:28;1.27;;;1.00;;
10823;SDS011;39116;59.332;18.034;2022-09-03T14:14:57;1.13;;;0.80;;
10823;SDS011;39116;59.332;18.034;2022-09-03T14:17:30;0.82;;;0.82;;
10823;SDS011;39116;59.332;18.034;2022-09-03T14:19:59;1.17;;;0.80;;
10823;SDS011;39116;59.332;18.034;2022-09-03T14:22:28;2.13;;;1.02;;
10823;SDS011;39116;59.332;18.034;2022-09-03T14:24:57;2.03;;;1.20;;
10823;SDS011;39116;59.332;18.034;2022-09-03T14:27:27;1.48;;;1.20;;
10823;SDS011;39116;59.332;18.034;2022-09-03T14:29:57;1.05;;;0.95;;
10823;SDS011;39116;59.332;18.034;2022-09-03T14:32:31;1.15;;;1.00;;
10823;SDS011;39116;59.332;18.034;2022-09-03T14:35:08;1.70;;;0.93;;
10823;SDS011;39116;59.332;18.034;2022-09-03T14:40:21;2.63;;;1.10;;
10823;SDS011;39116;59.332;18.034;2022-09-03T14:42:58;3.13;;;0.98;;
10823;SDS011;39116;59.332;18.034;2022-09-03T14:45:35;1.27;;;0.90;;
10823;SDS011;39116;59.332;18.034;2022-09-03T14:51:00;0.80;;;0.80;;
10823;SDS011;39116;59.332;18.034;2022-09-03T14:53:38;0.98;;;0.88;;
10823;SDS011;39116;59.332;18.034;2022-09-03T14:56:21;1.55;;;1.10;;
10823;SDS011;39116;59.332;18.034;2022-09-03T14:59:01;1.45;;;0.90;;
10823;SDS011;39116;59.332;18.034;2022-09-03T15:01:31;1.10;;;1.00;;
10823;SDS011;39116;59.332;18.034;2022-09-03T15:06:47;1.48;;;0.80;;